createdAt,value
2019-02-23T00:01:32.694Z,100.00
2019-02-23T00:04:01.074Z,100.00
2019-02-23T00:06:30.279Z,100.00
2019-02-23T00:08:58.710Z,100.00
2019-02-23T00:11:27.014Z,100.00
2019-02-23T00:13:55.275Z,100.00
2019-02-23T00:16:23.567Z,100.00
2019-02-23T00:18:51.948Z,100.00
2019-02-23T00:21:20.280Z,100.00
2019-02-23T00:23:48.599Z,100.00
2019-02-23T00:26:16.870Z,100.00
2019-02-23T00:28:45.199Z,100.00
2019-02-23T00:31:13.526Z,100.00
2019-02-23T00:33:41.804Z,100.00
2019-02-23T00:36:14.561Z,100.00
2019-02-23T00:38:42.868Z,100.00
2019-02-23T00:41:11.165Z,100.00
2019-02-23T00:43:39.534Z,100.00
2019-02-23T00:46:07.784Z,100.00
2019-02-23T00:48:36.177Z,100.00
2019-02-23T00:51:04.452Z,100.00
2019-02-23T00:53:32.727Z,100.00
2019-02-23T00:56:01.058Z,100.00
2019-02-23T00:58:29.345Z,100.00
2019-02-23T01:01:00.147Z,100.00
2019-02-23T01:03:28.486Z,100.00
2019-02-23T01:05:56.739Z,100.00
2019-02-23T01:08:25.020Z,100.00
2019-02-23T01:10:58.196Z,100.00
2019-02-23T01:13:23.308Z,100.00
2019-02-23T01:15:51.666Z,100.00
2019-02-23T01:18:19.950Z,100.00
2019-02-23T01:20:48.222Z,100.00
2019-02-23T01:23:16.497Z,100.00
2019-02-23T01:25:44.757Z,100.00
2019-02-23T01:28:13.030Z,100.00
2019-02-23T01:30:41.316Z,100.00
2019-02-23T01:33:09.605Z,100.00
2019-02-23T01:35:37.912Z,100.00
2019-02-23T01:38:06.187Z,100.00
2019-02-23T01:40:34.523Z,100.00
2019-02-23T01:43:02.879Z,100.00
2019-02-23T01:45:41.848Z,100.00
2019-02-23T01:48:01.176Z,100.00
2019-02-23T01:50:29.525Z,100.00
2019-02-23T01:52:57.837Z,100.00
2019-02-23T01:55:26.146Z,100.00
2019-02-23T01:57:54.510Z,100.00
2019-02-23T02:00:22.951Z,100.00
2019-02-23T02:02:51.253Z,100.00
2019-02-23T02:05:19.505Z,100.00
2019-02-23T02:07:47.917Z,100.00
2019-02-23T02:10:16.395Z,100.00
2019-02-23T02:12:47.402Z,100.00
2019-02-23T02:15:15.939Z,100.00
2019-02-23T02:17:44.270Z,100.00
2019-02-23T02:20:12.530Z,100.00
2019-02-23T02:22:40.824Z,100.00
2019-02-23T02:25:09.253Z,100.00
2019-02-23T02:27:37.522Z,100.00
2019-02-23T02:30:08.434Z,100.00
2019-02-23T02:32:36.686Z,100.00
2019-02-23T02:35:06.557Z,100.00
2019-02-23T02:37:34.830Z,100.00
2019-02-23T02:40:03.161Z,100.00
2019-02-23T02:42:31.436Z,100.00
2019-02-23T02:44:59.704Z,100.00
2019-02-23T02:47:28.088Z,100.00
2019-02-23T02:49:56.376Z,100.00
2019-02-23T02:52:24.669Z,100.00
2019-02-23T02:54:52.953Z,100.00
2019-02-23T02:57:21.241Z,100.00
2019-02-23T02:59:49.491Z,100.00
2019-02-23T03:02:17.788Z,100.00
2019-02-23T03:04:46.040Z,100.00
2019-02-23T03:07:14.328Z,100.00
2019-02-23T03:09:42.642Z,100.00
2019-02-23T03:12:10.919Z,100.00
2019-02-23T03:14:39.281Z,100.00
2019-02-23T03:17:07.560Z,100.00
2019-02-23T03:19:35.877Z,100.00
2019-02-23T03:22:04.242Z,100.00
2019-02-23T03:24:32.505Z,100.00
2019-02-23T03:27:00.941Z,100.00
2019-02-23T03:29:29.267Z,100.00
2019-02-23T03:31:57.553Z,100.00
2019-02-23T03:34:25.843Z,100.00
2019-02-23T03:36:54.149Z,100.00
2019-02-23T03:39:22.439Z,100.00
2019-02-23T03:41:50.733Z,100.00
2019-02-23T03:44:19.000Z,100.00
2019-02-23T03:46:47.288Z,100.00
2019-02-23T03:49:15.619Z,100.00
2019-02-23T03:51:44.006Z,100.00
2019-02-23T03:54:12.367Z,100.00
2019-02-23T03:56:40.640Z,100.00
2019-02-23T03:59:08.986Z,100.00
2019-02-23T04:01:37.354Z,100.00
2019-02-23T04:04:05.632Z,100.00
2019-02-23T04:06:33.919Z,100.00
2019-02-23T04:09:02.951Z,100.00
2019-02-23T04:11:31.367Z,100.00
2019-02-23T04:13:59.637Z,100.00
2019-02-23T04:16:27.922Z,100.00
2019-02-23T04:18:56.194Z,100.00
2019-02-23T04:21:24.478Z,100.00
2019-02-23T04:23:55.166Z,100.00
2019-02-23T04:26:22.783Z,100.00
2019-02-23T04:28:52.694Z,100.00
2019-02-23T04:31:20.978Z,100.00
2019-02-23T04:33:49.280Z,100.00
2019-02-23T04:36:17.543Z,100.00
2019-02-23T04:38:45.809Z,100.00
2019-02-23T04:41:14.125Z,100.00
2019-02-23T04:43:44.180Z,100.00
2019-02-23T04:46:12.621Z,100.00
2019-02-23T04:48:40.870Z,100.00
2019-02-23T04:51:14.418Z,100.00
2019-02-23T04:53:39.350Z,100.00
2019-02-23T04:56:07.796Z,100.00
2019-02-23T04:58:36.106Z,100.00
2019-02-23T05:01:04.450Z,100.00
2019-02-23T05:03:32.681Z,100.00
2019-02-23T05:06:00.991Z,100.00
2019-02-23T05:08:29.260Z,100.00
2019-02-23T05:10:57.529Z,100.00
2019-02-23T05:13:25.811Z,100.00
2019-02-23T05:15:54.109Z,100.00
2019-02-23T05:18:22.386Z,100.00
2019-02-23T05:20:50.663Z,100.00
2019-02-23T05:23:18.969Z,100.00
2019-02-23T05:25:47.289Z,100.00
2019-02-23T05:28:15.583Z,100.00
2019-02-23T05:30:43.846Z,100.00
2019-02-23T05:33:12.190Z,100.00
2019-02-23T05:35:40.479Z,100.00
2019-02-23T05:38:08.791Z,100.00
2019-02-23T05:40:37.142Z,100.00
2019-02-23T05:43:05.494Z,100.00
2019-02-23T05:45:33.780Z,100.00
2019-02-23T05:48:02.081Z,100.00
2019-02-23T05:50:30.355Z,100.00
2019-02-23T05:52:58.685Z,100.00
2019-02-23T05:55:26.973Z,100.00
2019-02-23T05:57:55.236Z,100.00
2019-02-23T06:00:23.595Z,100.00
2019-02-23T06:02:51.884Z,100.00
2019-02-23T06:05:20.306Z,100.00
2019-02-23T06:07:48.675Z,100.00
2019-02-23T06:10:16.963Z,100.00
2019-02-23T06:12:45.232Z,100.00
2019-02-23T06:15:16.579Z,100.00
2019-02-23T06:17:44.910Z,100.00
2019-02-23T06:20:13.360Z,100.00
2019-02-23T06:22:41.735Z,100.00
2019-02-23T06:25:10.097Z,100.00
2019-02-23T06:27:41.419Z,100.00
2019-02-23T06:30:11.878Z,100.00
2019-02-23T06:32:40.131Z,100.00
2019-02-23T06:35:09.960Z,100.00
2019-02-23T06:37:38.226Z,100.00
2019-02-23T06:40:11.208Z,100.00
2019-02-23T06:42:39.249Z,100.00
2019-02-23T06:45:13.878Z,100.00
2019-02-23T06:47:42.145Z,100.00
2019-02-23T06:50:10.422Z,100.00
2019-02-23T06:52:38.979Z,100.00
2019-02-23T06:55:07.996Z,100.00
2019-02-23T06:57:36.355Z,100.00
2019-02-23T07:00:07.649Z,100.00
2019-02-23T07:02:36.079Z,100.00
2019-02-23T07:05:04.926Z,100.00
2019-02-23T07:07:33.307Z,100.00
2019-02-23T07:10:01.705Z,100.00
2019-02-23T07:12:30.011Z,100.00
2019-02-23T07:14:59.985Z,100.00
2019-02-23T07:17:28.275Z,100.00
2019-02-23T07:19:58.274Z,100.00
2019-02-23T07:22:26.563Z,100.00
2019-02-23T07:24:54.824Z,100.00
2019-02-23T07:27:23.092Z,100.00
2019-02-23T07:29:51.472Z,100.00
2019-02-23T07:32:19.823Z,100.00
2019-02-23T07:34:48.198Z,100.00
2019-02-23T07:37:16.799Z,100.00
2019-02-23T07:39:45.391Z,100.00
2019-02-23T07:42:13.930Z,100.00
2019-02-23T07:44:42.469Z,100.00
2019-02-23T07:47:10.765Z,100.00
2019-02-23T07:49:39.229Z,100.00
2019-02-23T07:52:09.029Z,100.00
2019-02-23T07:54:37.310Z,100.00
2019-02-23T07:57:05.603Z,100.00
2019-02-23T07:59:33.947Z,100.00
2019-02-23T08:02:02.690Z,100.00
2019-02-23T08:04:31.360Z,100.00
2019-02-23T08:07:00.112Z,100.00
2019-02-23T08:09:28.683Z,100.00
2019-02-23T08:11:57.042Z,100.00
2019-02-23T08:14:25.330Z,100.00
2019-02-23T08:16:53.965Z,100.00
2019-02-23T08:19:22.417Z,100.00
2019-02-23T08:21:50.791Z,100.00
2019-02-23T08:24:19.400Z,100.00
2019-02-23T08:26:47.981Z,100.00
2019-02-23T08:29:16.667Z,100.00
2019-02-23T08:31:45.324Z,100.00
2019-02-23T08:34:15.321Z,100.00
2019-02-23T08:36:43.937Z,100.00
2019-02-23T08:39:12.339Z,100.00
2019-02-23T08:41:43.252Z,100.00
2019-02-23T08:44:13.047Z,100.00
2019-02-23T08:46:47.491Z,100.00
2019-02-23T08:49:15.823Z,100.00
2019-02-23T08:51:44.494Z,100.00
2019-02-23T08:54:13.051Z,100.00
2019-02-23T08:56:41.369Z,100.00
2019-02-23T08:59:09.703Z,100.00
2019-02-23T09:01:38.221Z,100.00
2019-02-23T09:04:06.484Z,100.00
2019-02-23T09:06:35.221Z,100.00
2019-02-23T09:09:04.253Z,100.00
2019-02-23T09:11:32.528Z,100.00
2019-02-23T09:14:01.078Z,100.00
2019-02-23T09:16:29.354Z,100.00
2019-02-23T09:18:57.629Z,100.00
2019-02-23T09:21:25.968Z,98.95
2019-02-23T09:23:54.298Z,100.00
2019-02-23T09:26:22.762Z,97.95
2019-02-23T09:28:51.428Z,96.97
2019-02-23T09:31:19.960Z,94.51
2019-02-23T09:33:48.506Z,90.48
2019-02-23T09:36:17.058Z,81.93
2019-02-23T09:38:45.629Z,78.36
2019-02-23T09:41:14.054Z,72.96
2019-02-23T09:43:42.551Z,75.41
2019-02-23T09:46:10.885Z,69.65
2019-02-23T09:48:42.317Z,70.17
2019-02-23T09:51:10.559Z,62.95
2019-02-23T09:53:38.865Z,62.09
2019-02-23T09:56:07.110Z,60.54
2019-02-23T09:58:35.363Z,55.76
2019-02-23T10:01:03.628Z,56.55
2019-02-23T10:03:31.891Z,57.23
2019-02-23T10:06:00.176Z,54.67
2019-02-23T10:08:28.436Z,50.20
2019-02-23T10:10:57.627Z,52.73
2019-02-23T10:13:26.132Z,49.93
2019-02-23T10:15:54.426Z,47.70
2019-02-23T10:18:22.673Z,44.41
2019-02-23T10:20:50.927Z,42.95
2019-02-23T10:23:22.095Z,41.30
2019-02-23T10:25:50.813Z,40.07
2019-02-23T10:28:19.151Z,42.42
2019-02-23T10:30:47.454Z,40.89
2019-02-23T10:33:15.694Z,41.05
2019-02-23T10:35:44.027Z,39.53
2019-02-23T10:38:12.308Z,40.76
2019-02-23T10:40:40.665Z,37.48
2019-02-23T10:43:08.933Z,39.46
2019-02-23T10:45:37.332Z,37.21
2019-02-23T10:48:05.617Z,40.30
2019-02-23T10:50:33.954Z,41.54
2019-02-23T10:53:02.200Z,40.71
2019-02-23T10:55:30.454Z,37.97
2019-02-23T10:57:58.711Z,38.21
2019-02-23T11:00:26.979Z,40.93
2019-02-23T11:02:55.227Z,40.37
2019-02-23T11:05:23.658Z,38.05
2019-02-23T11:07:51.902Z,40.29
2019-02-23T11:10:20.340Z,41.00
2019-02-23T11:12:48.600Z,41.34
2019-02-23T11:15:18.485Z,39.36
2019-02-23T11:17:46.746Z,39.77
2019-02-23T11:20:15.539Z,40.21
2019-02-23T11:22:43.780Z,39.12
2019-02-23T11:25:12.311Z,37.29
2019-02-23T11:27:40.568Z,36.95
2019-02-23T11:30:13.332Z,39.41
2019-02-23T11:32:41.603Z,35.29
2019-02-23T11:35:17.967Z,36.83
2019-02-23T11:37:46.346Z,38.49
2019-02-23T11:40:15.767Z,37.37
2019-02-23T11:42:44.015Z,37.59
2019-02-23T11:45:12.295Z,35.77
2019-02-23T11:47:40.545Z,32.28
2019-02-23T11:50:12.858Z,31.08
2019-02-23T11:52:44.265Z,31.31
2019-02-23T11:55:12.644Z,29.78
2019-02-23T11:57:40.892Z,29.22
2019-02-23T12:00:11.194Z,31.52
2019-02-23T12:02:39.463Z,31.04
2019-02-23T12:05:08.850Z,28.88
2019-02-23T12:07:37.139Z,30.40
2019-02-23T12:10:08.645Z,32.62
2019-02-23T12:12:36.924Z,31.90
2019-02-23T12:15:06.402Z,31.18
2019-02-23T12:17:34.715Z,30.78
2019-02-23T12:20:03.142Z,31.14
2019-02-23T12:22:31.525Z,31.27
2019-02-23T12:25:12.958Z,28.99
2019-02-23T12:27:40.235Z,31.87
2019-02-23T12:30:12.283Z,29.78
2019-02-23T12:32:40.641Z,28.76
2019-02-23T12:35:10.498Z,29.55
2019-02-23T12:37:38.754Z,28.85
2019-02-23T12:40:08.282Z,28.73
2019-02-23T12:42:36.623Z,30.76
2019-02-23T12:45:06.938Z,29.33
2019-02-23T12:47:35.237Z,30.72
2019-02-23T12:50:03.855Z,30.08
2019-02-23T12:52:32.147Z,33.08
2019-02-23T12:55:00.530Z,29.97
2019-02-23T12:57:31.612Z,29.95
2019-02-23T12:59:59.981Z,30.65
2019-02-23T13:02:28.332Z,29.55
2019-02-23T13:04:56.596Z,30.34
2019-02-23T13:07:24.836Z,29.50
2019-02-23T13:09:53.097Z,27.99
2019-02-23T13:12:24.654Z,26.22
2019-02-23T13:14:59.119Z,27.60
2019-02-23T13:17:48.536Z,29.06
2019-02-23T13:20:20.039Z,30.34
2019-02-23T13:22:54.254Z,30.60
2019-02-23T13:25:44.202Z,29.58
2019-02-23T13:28:34.991Z,30.88
2019-02-23T13:31:18.431Z,27.44
2019-02-23T13:34:21.601Z,27.61
2019-02-23T13:37:02.418Z,29.69
2019-02-23T13:39:52.289Z,28.63
2019-02-23T13:42:38.855Z,30.59
2019-02-23T13:45:22.513Z,27.38
2019-02-23T13:48:22.644Z,30.34
2019-02-23T13:50:57.198Z,30.21
2019-02-23T13:53:46.328Z,31.46
2019-02-23T13:56:20.795Z,32.68
2019-02-23T13:58:58.311Z,30.12
2019-02-23T14:01:46.118Z,31.26
2019-02-23T14:04:40.134Z,31.96
2019-02-23T14:07:34.186Z,32.68
2019-02-23T14:10:27.937Z,31.79
2019-02-23T14:13:01.150Z,32.85
2019-02-23T14:15:49.135Z,33.38
2019-02-23T14:18:23.366Z,32.65
2019-02-23T14:21:26.660Z,32.67
2019-02-23T14:23:58.331Z,33.97
2019-02-23T14:26:44.171Z,33.73
2019-02-23T14:29:35.610Z,32.24
2019-02-23T14:32:09.971Z,33.12
2019-02-23T14:34:50.188Z,33.77
2019-02-23T14:37:21.882Z,34.56
2019-02-23T14:40:14.666Z,34.71
2019-02-23T14:42:55.223Z,34.97
2019-02-23T14:45:48.187Z,34.36
2019-02-23T14:48:34.611Z,34.90
2019-02-23T14:51:21.478Z,35.09
2019-02-23T14:56:47.248Z,32.80
2019-02-23T14:59:30.611Z,34.29
2019-02-23T15:02:05.101Z,33.91
2019-02-23T15:04:57.341Z,36.11
2019-02-23T15:07:37.206Z,33.74
2019-02-23T15:10:14.340Z,33.14
2019-02-23T15:13:00.637Z,33.90
2019-02-23T15:15:38.134Z,33.84
2019-02-23T15:18:21.806Z,32.44
2019-02-23T15:21:02.153Z,32.55
2019-02-23T15:23:51.675Z,33.98
2019-02-23T15:26:35.229Z,33.56
2019-02-23T15:29:18.673Z,32.95
2019-02-23T15:32:08.357Z,34.46
2019-02-23T15:34:45.810Z,33.50
2019-02-23T15:37:29.229Z,33.86
2019-02-23T15:40:29.855Z,33.89
2019-02-23T15:43:01.385Z,33.58
2019-02-23T15:45:47.932Z,34.37
2019-02-23T15:48:51.243Z,34.55
2019-02-23T15:51:19.558Z,33.92
2019-02-23T15:53:47.794Z,34.01
2019-02-23T15:56:16.052Z,34.84
2019-02-23T15:58:44.303Z,34.79
2019-02-23T16:01:12.550Z,35.66
2019-02-23T16:03:40.799Z,34.41
2019-02-23T16:06:09.044Z,33.80
2019-02-23T16:08:37.290Z,34.75
2019-02-23T16:11:05.559Z,35.47
2019-02-23T16:13:33.788Z,34.63
2019-02-23T16:16:02.034Z,34.47
2019-02-23T16:18:30.284Z,35.18
2019-02-23T16:20:58.534Z,34.24
2019-02-23T16:23:34.914Z,35.01
2019-02-23T16:25:56.749Z,35.40
2019-02-23T16:28:25.024Z,36.04
2019-02-23T16:30:53.340Z,36.03
2019-02-23T16:33:21.777Z,35.36
2019-02-23T16:35:50.004Z,34.26
2019-02-23T16:38:18.251Z,34.72
2019-02-23T16:40:46.499Z,35.70
2019-02-23T16:43:14.747Z,35.63
2019-02-23T16:45:43.096Z,36.03
2019-02-23T16:48:11.342Z,37.46
2019-02-23T16:50:39.645Z,37.49
2019-02-23T16:53:07.911Z,36.72
2019-02-23T16:55:36.166Z,39.10
2019-02-23T16:58:04.413Z,39.70
2019-02-23T17:00:32.661Z,40.01
2019-02-23T17:03:01.036Z,40.09
2019-02-23T17:05:29.418Z,40.42
2019-02-23T17:07:58.015Z,41.19
2019-02-23T17:10:26.489Z,42.64
2019-02-23T17:12:54.726Z,43.43
2019-02-23T17:15:22.991Z,42.67
2019-02-23T17:17:51.328Z,43.83
2019-02-23T17:20:19.780Z,44.94
2019-02-23T17:22:48.319Z,44.99
2019-02-23T17:25:16.565Z,46.23
2019-02-23T17:27:45.225Z,46.43
2019-02-23T17:30:13.526Z,47.23
2019-02-23T17:32:43.477Z,48.86
2019-02-23T17:35:11.893Z,49.42
2019-02-23T17:37:40.239Z,49.42
2019-02-23T17:40:08.564Z,49.87
2019-02-23T17:42:36.797Z,51.24
2019-02-23T17:45:08.077Z,52.35
2019-02-23T17:47:36.510Z,52.72
2019-02-23T17:50:06.768Z,51.41
2019-02-23T17:52:36.717Z,52.75
2019-02-23T17:55:07.396Z,53.22
2019-02-23T17:57:35.664Z,53.55
2019-02-23T18:00:04.454Z,53.82
2019-02-23T18:02:32.712Z,53.81
2019-02-23T18:05:00.952Z,54.08
2019-02-23T18:07:29.207Z,55.89
2019-02-23T18:09:57.470Z,57.99
2019-02-23T18:12:25.713Z,56.56
2019-02-23T18:14:53.965Z,57.53
2019-02-23T18:17:22.277Z,58.29
2019-02-23T18:19:50.611Z,58.98
2019-02-23T18:22:18.863Z,57.92
2019-02-23T18:24:47.105Z,57.64
2019-02-23T18:27:15.358Z,57.53
2019-02-23T18:29:43.602Z,59.37
2019-02-23T18:32:11.847Z,62.94
2019-02-23T18:34:40.102Z,61.52
2019-02-23T18:37:08.351Z,60.85
2019-02-23T18:39:36.609Z,59.98
2019-02-23T18:42:04.898Z,58.38
2019-02-23T18:44:33.139Z,59.31
2019-02-23T18:47:01.419Z,58.07
2019-02-23T18:49:29.730Z,59.61
2019-02-23T18:51:58.079Z,60.34
2019-02-23T18:54:26.331Z,62.42
2019-02-23T18:56:54.638Z,62.87
2019-02-23T18:59:22.921Z,60.49
2019-02-23T19:01:51.169Z,62.60
2019-02-23T19:04:19.414Z,65.37
2019-02-23T19:06:47.667Z,65.00
2019-02-23T19:09:15.905Z,63.30
2019-02-23T19:11:44.146Z,65.15
2019-02-23T19:14:12.408Z,63.62
2019-02-23T19:16:40.718Z,67.72
2019-02-23T19:19:08.981Z,65.68
2019-02-23T19:21:37.231Z,63.98
2019-02-23T19:24:05.467Z,63.35
2019-02-23T19:26:38.267Z,63.95
2019-02-23T19:29:03.695Z,63.57
2019-02-23T19:31:31.930Z,63.23
2019-02-23T19:34:00.182Z,64.19
2019-02-23T19:36:28.454Z,66.75
2019-02-23T19:38:56.701Z,64.49
2019-02-23T19:41:24.946Z,64.96
2019-02-23T19:43:53.237Z,67.01
2019-02-23T19:46:21.659Z,67.05
2019-02-23T19:48:49.910Z,66.43
2019-02-23T19:51:18.244Z,64.95
2019-02-23T19:53:46.688Z,63.55
2019-02-23T19:56:14.948Z,62.42
2019-02-23T19:58:43.297Z,61.99
2019-02-23T20:01:11.566Z,64.67
2019-02-23T20:03:39.819Z,67.96
2019-02-23T20:06:08.090Z,69.44
2019-02-23T20:08:36.409Z,70.25
2019-02-23T20:11:04.799Z,70.39
2019-02-23T20:13:33.190Z,69.75
2019-02-23T20:16:01.565Z,67.75
2019-02-23T20:18:30.103Z,68.35
2019-02-23T20:20:58.612Z,66.20
2019-02-23T20:23:27.037Z,64.91
2019-02-23T20:25:56.126Z,65.32
2019-02-23T20:28:24.549Z,63.63
2019-02-23T20:30:53.024Z,63.88
2019-02-23T20:33:21.447Z,68.63
2019-02-23T20:35:49.804Z,70.28
2019-02-23T20:38:18.201Z,71.29
2019-02-23T20:40:46.709Z,72.55
2019-02-23T20:43:15.299Z,75.33
2019-02-23T20:45:44.022Z,75.04
2019-02-23T20:48:12.495Z,75.29
2019-02-23T20:50:40.763Z,74.78
2019-02-23T20:53:09.118Z,70.53
2019-02-23T20:55:38.297Z,68.51
2019-02-23T20:58:06.565Z,68.21
2019-02-23T21:00:34.923Z,70.59
2019-02-23T21:03:03.178Z,73.12
2019-02-23T21:05:31.491Z,73.96
2019-02-23T21:07:59.890Z,74.68
2019-02-23T21:10:28.194Z,75.68
2019-02-23T21:12:56.470Z,75.61
2019-02-23T21:15:24.871Z,76.36
2019-02-23T21:17:53.205Z,75.88
2019-02-23T21:20:21.541Z,78.15
2019-02-23T21:22:49.825Z,78.28
2019-02-23T21:25:18.155Z,78.96
2019-02-23T21:27:46.478Z,78.62
2019-02-23T21:30:14.732Z,76.84
2019-02-23T21:32:43.018Z,76.88
2019-02-23T21:35:11.359Z,78.26
2019-02-23T21:37:39.621Z,80.62
2019-02-23T21:40:09.920Z,82.20
2019-02-23T21:42:38.187Z,83.95
2019-02-23T21:45:08.490Z,87.42
2019-02-23T21:47:36.701Z,89.14
2019-02-23T21:50:07.234Z,88.17
2019-02-23T21:52:35.495Z,87.63
2019-02-23T21:55:03.858Z,87.72
2019-02-23T21:57:32.270Z,88.75
2019-02-23T22:00:00.677Z,88.52
2019-02-23T22:02:28.920Z,85.43
2019-02-23T22:04:57.181Z,85.04
2019-02-23T22:07:25.486Z,88.09
2019-02-23T22:09:53.724Z,89.24
2019-02-23T22:12:22.079Z,90.74
2019-02-23T22:14:50.345Z,91.97
2019-02-23T22:17:18.643Z,92.36
2019-02-23T22:19:46.896Z,91.13
2019-02-23T22:22:15.238Z,92.16
2019-02-23T22:24:43.560Z,93.17
2019-02-23T22:27:11.822Z,93.10
2019-02-23T22:29:40.088Z,91.23
2019-02-23T22:32:08.350Z,92.40
2019-02-23T22:34:36.630Z,93.44
2019-02-23T22:37:04.941Z,91.80
2019-02-23T22:39:33.237Z,91.95
2019-02-23T22:42:01.513Z,92.55
2019-02-23T22:44:29.819Z,93.21
2019-02-23T22:46:58.117Z,94.04
2019-02-23T22:49:26.377Z,91.44
2019-02-23T22:51:54.669Z,93.07
2019-02-23T22:54:22.956Z,92.92
2019-02-23T22:56:51.309Z,92.78
2019-02-23T22:59:19.604Z,90.92
2019-02-23T23:01:47.906Z,91.72
2019-02-23T23:04:16.273Z,90.60
2019-02-23T23:06:44.545Z,92.18
2019-02-23T23:09:14.452Z,90.21
2019-02-23T23:11:42.713Z,87.77
2019-02-23T23:14:10.969Z,85.61
2019-02-23T23:16:39.261Z,88.25
2019-02-23T23:19:07.535Z,91.05
2019-02-23T23:21:35.790Z,91.74
2019-02-23T23:24:04.047Z,91.20
2019-02-23T23:26:32.364Z,88.40
2019-02-23T23:29:00.656Z,89.46
2019-02-23T23:31:28.936Z,89.89
2019-02-23T23:33:57.214Z,89.13
2019-02-23T23:36:25.477Z,87.82
2019-02-23T23:38:53.727Z,84.82
2019-02-23T23:41:22.012Z,87.00
2019-02-23T23:43:50.255Z,84.65
2019-02-23T23:46:18.528Z,85.95
2019-02-23T23:48:46.812Z,85.79
2019-02-23T23:51:15.072Z,84.36
2019-02-23T23:53:43.355Z,84.50
2019-02-23T23:56:11.606Z,86.80
2019-02-23T23:58:39.882Z,87.20
